Time;durP1;ratioP1;P1;durP2;ratioP2;P2;SDS_P1;SDS_P2;PMS_P1;PMS_P2;Temp;Humidity;BMP_temperature;BMP_pressure;BME280_temperature;BME280_humidity;BME280_pressure;Samples;Min_cycle;Max_cycle;Signal;HPM_P1;HPM_P2
2022/11/22 00:01:00;;;;;;;2.73;1.10;;;7.50;99.90;;;;;;5056005;28;20453;-83
2022/11/22 00:03:27;;;;;;;3.43;1.17;;;7.50;99.90;;;;;;5055591;28;20450;-82
2022/11/22 00:05:54;;;;;;;4.83;0.87;;;7.60;99.90;;;;;;5055171;28;20446;-82
2022/11/22 00:08:21;;;;;;;3.97;1.37;;;7.60;99.90;;;;;;5054271;28;20450;-81
2022/11/22 00:10:49;;;;;;;4.23;1.30;;;7.60;99.90;;;;;;5055132;28;20541;-82
2022/11/22 00:13:16;;;;;;;2.50;1.13;;;7.60;99.90;;;;;;5056875;28;20448;-81
2022/11/22 00:15:43;;;;;;;3.90;1.73;;;7.60;99.90;;;;;;5065694;28;20581;-81
2022/11/22 00:18:11;;;;;;;5.27;1.37;;;7.50;99.90;;;;;;5064456;28;20550;-80
2022/11/22 00:20:38;;;;;;;3.83;1.30;;;7.50;99.90;;;;;;5089008;22;20512;-84
2022/11/22 00:23:05;;;;;;;3.67;1.37;;;7.50;99.90;;;;;;5068418;28;20516;-84
2022/11/22 00:25:32;;;;;;;4.60;1.20;;;7.60;99.90;;;;;;5062835;28;20464;-84
2022/11/22 00:27:59;;;;;;;1.93;1.10;;;7.60;99.90;;;;;;5067126;28;20530;-84
2022/11/22 00:30:26;;;;;;;4.20;1.53;;;7.60;99.90;;;;;;5089130;28;20888;-84
2022/11/22 00:32:52;;;;;;;2.90;1.33;;;7.60;99.90;;;;;;5099544;28;20536;-84
2022/11/22 00:35:21;;;;;;;3.00;1.03;;;7.60;99.90;;;;;;5081850;28;20616;-84
2022/11/22 00:37:47;;;;;;;3.40;1.10;;;7.60;99.90;;;;;;5074047;28;20499;-83
2022/11/22 00:40:15;;;;;;;3.73;1.07;;;7.60;99.90;;;;;;5097805;28;20477;-84
2022/11/22 00:42:41;;;;;;;3.83;1.77;;;7.50;99.90;;;;;;5097090;28;20453;-83
2022/11/22 00:45:09;;;;;;;6.70;1.50;;;7.60;99.90;;;;;;5078963;28;20519;-84
2022/11/22 00:47:36;;;;;;;4.40;1.67;;;7.60;99.90;;;;;;5081030;28;20537;-84
2022/11/22 00:50:03;;;;;;;2.23;1.20;;;7.60;99.90;;;;;;5081777;28;20473;-84
2022/11/22 00:52:31;;;;;;;3.20;1.50;;;7.50;99.90;;;;;;5067860;28;20545;-84
2022/11/22 00:54:58;;;;;;;4.33;1.90;;;7.50;99.90;;;;;;5076033;28;20464;-83
2022/11/22 00:57:25;;;;;;;4.00;1.30;;;7.50;99.90;;;;;;5075829;28;20594;-84
2022/11/22 00:59:51;;;;;;;3.33;1.20;;;7.50;99.90;;;;;;5074632;28;20860;-84
2022/11/22 01:02:18;;;;;;;2.43;1.10;;;7.50;99.90;;;;;;5074984;28;20958;-84
2022/11/22 01:04:46;;;;;;;4.27;1.87;;;7.50;99.90;;;;;;5075195;28;20447;-83
2022/11/22 01:07:13;;;;;;;5.63;1.60;;;7.50;99.90;;;;;;5074792;28;20449;-84
2022/11/22 01:09:41;;;;;;;3.50;1.40;;;7.50;99.90;;;;;;5089385;28;20469;-84
2022/11/22 01:12:08;;;;;;;1.90;1.20;;;7.50;99.90;;;;;;5060047;28;20834;-83
2022/11/22 01:14:35;;;;;;;2.30;1.60;;;7.50;99.90;;;;;;5094746;28;20457;-83
2022/11/22 01:17:05;;;;;;;2.80;1.37;;;7.60;99.90;;;;;;5094743;28;20492;-83
2022/11/22 01:19:31;;;;;;;3.07;1.40;;;7.60;99.90;;;;;;5058575;28;20854;-83
2022/11/22 01:21:58;;;;;;;2.40;1.30;;;7.60;99.90;;;;;;5074395;28;20454;-84
2022/11/22 01:24:25;;;;;;;5.30;1.50;;;7.60;99.90;;;;;;5087805;28;20963;-83
2022/11/22 01:26:53;;;;;;;3.60;1.80;;;7.50;99.90;;;;;;5075420;28;20446;-83
2022/11/22 01:29:20;;;;;;;4.10;1.40;;;7.50;99.90;;;;;;5074718;28;20980;-82
2022/11/22 01:31:47;;;;;;;2.53;1.40;;;7.50;99.90;;;;;;5074564;28;20456;-82
2022/11/22 01:34:13;;;;;;;3.80;1.30;;;7.50;99.90;;;;;;5090112;28;20976;-82
2022/11/22 01:36:40;;;;;;;2.50;1.33;;;7.50;99.90;;;;;;5094409;28;20514;-82
2022/11/22 01:39:07;;;;;;;4.70;1.53;;;7.60;99.90;;;;;;5075623;28;20447;-81
2022/11/22 01:41:34;;;;;;;4.23;1.50;;;7.40;99.90;;;;;;5085021;28;20833;-81
2022/11/22 01:44:24;;;;;;;4.77;1.73;;;7.50;99.90;;;;;;5076108;28;21151;-81
2022/11/22 01:46:53;;;;;;;2.63;1.50;;;7.50;99.90;;;;;;5085777;28;20445;-81
2022/11/22 01:49:27;;;;;;;3.57;1.80;;;7.50;99.90;;;;;;5095194;28;20455;-82
2022/11/22 01:51:58;;;;;;;7.33;1.47;;;7.50;99.90;;;;;;5085323;28;20449;-81
2022/11/22 01:54:27;;;;;;;3.63;1.50;;;7.50;99.90;;;;;;5075688;28;20518;-82
2022/11/22 01:56:57;;;;;;;3.20;1.10;;;7.50;99.90;;;;;;5084755;28;20488;-81
2022/11/22 01:59:30;;;;;;;4.97;1.63;;;7.50;99.90;;;;;;5095049;28;20450;-81
2022/11/22 02:01:57;;;;;;;3.00;1.40;;;7.40;99.90;;;;;;5086501;28;20454;-83
2022/11/22 02:04:27;;;;;;;5.73;1.40;;;7.50;99.90;;;;;;5075211;28;20966;-82
2022/11/22 02:07:02;;;;;;;3.80;1.50;;;7.50;99.90;;;;;;5082580;28;20473;-82
2022/11/22 02:09:29;;;;;;;2.83;1.43;;;7.50;99.90;;;;;;5075877;28;20485;-82
2022/11/22 02:12:00;;;;;;;5.80;1.60;;;7.50;99.90;;;;;;5090796;28;21146;-82
2022/11/22 02:14:29;;;;;;;6.43;1.37;;;7.60;99.90;;;;;;5095128;28;20453;-83
2022/11/22 02:16:56;;;;;;;6.13;2.00;;;7.50;99.90;;;;;;5078851;28;21023;-82
2022/11/22 02:19:32;;;;;;;2.43;1.50;;;7.50;99.90;;;;;;5090557;28;20836;-81
2022/11/22 02:22:03;;;;;;;5.60;1.70;;;7.60;99.90;;;;;;5088814;28;20450;-81
2022/11/22 02:24:36;;;;;;;4.50;1.60;;;7.60;99.90;;;;;;5091309;28;20484;-83
2022/11/22 02:27:04;;;;;;;2.27;1.87;;;7.60;99.90;;;;;;5092943;28;20452;-83
2022/11/22 02:29:32;;;;;;;4.43;1.67;;;7.60;99.90;;;;;;5093567;28;20474;-83
2022/11/22 02:31:59;;;;;;;5.10;1.57;;;7.60;99.90;;;;;;5076899;28;20446;-83
2022/11/22 02:34:25;;;;;;;5.17;2.37;;;7.60;99.90;;;;;;5074562;28;20450;-83
2022/11/22 02:36:54;;;;;;;2.73;1.67;;;7.60;99.90;;;;;;5090398;28;20491;-82
2022/11/22 02:39:26;;;;;;;2.70;1.50;;;7.70;99.90;;;;;;5093364;28;21004;-84
2022/11/22 02:41:55;;;;;;;6.90;1.70;;;7.70;99.90;;;;;;5080669;28;21019;-83
2022/11/22 02:44:25;;;;;;;4.83;1.67;;;7.70;99.90;;;;;;5093197;28;20548;-83
2022/11/22 02:46:54;;;;;;;5.07;2.03;;;7.70;99.90;;;;;;5076741;28;20831;-83
2022/11/22 02:49:25;;;;;;;6.50;1.80;;;7.70;99.90;;;;;;5073934;28;20454;-84
2022/11/22 02:51:53;;;;;;;2.97;1.77;;;7.70;99.90;;;;;;5089212;28;20478;-85
2022/11/22 02:54:22;;;;;;;3.70;1.77;;;7.80;99.90;;;;;;5073306;28;20847;-84
2022/11/22 02:56:49;;;;;;;5.97;1.80;;;7.70;99.90;;;;;;5082578;28;20482;-84
2022/11/22 02:59:16;;;;;;;4.73;1.63;;;7.60;99.90;;;;;;5071583;28;20534;-83
2022/11/22 03:01:46;;;;;;;8.30;2.03;;;7.50;99.90;;;;;;5052131;28;20959;-83
2022/11/22 03:04:23;;;;;;;5.63;2.30;;;7.50;99.90;;;;;;5052722;28;20551;-83
2022/11/22 03:06:50;;;;;;;6.23;1.90;;;7.40;99.90;;;;;;5052375;28;20444;-83
2022/11/22 03:09:18;;;;;;;6.33;2.10;;;7.40;99.90;;;;;;5064646;28;20450;-84
2022/11/22 03:11:46;;;;;;;7.80;1.87;;;7.30;99.90;;;;;;5072975;28;20450;-84
2022/11/22 03:14:13;;;;;;;5.00;2.10;;;7.40;99.90;;;;;;5072114;28;20554;-83
2022/11/22 03:16:40;;;;;;;11.23;2.20;;;7.40;99.90;;;;;;5090068;28;20489;-83
2022/11/22 03:19:09;;;;;;;15.17;2.17;;;7.50;99.90;;;;;;5090623;28;20450;-83
2022/11/22 03:21:36;;;;;;;4.90;1.73;;;7.60;99.90;;;;;;5092484;28;20438;-83
2022/11/22 03:24:03;;;;;;;7.00;2.13;;;7.70;99.90;;;;;;5089363;28;20450;-83
2022/11/22 03:26:30;;;;;;;6.03;2.30;;;7.70;99.90;;;;;;5072278;28;20458;-83
2022/11/22 03:28:57;;;;;;;5.10;2.13;;;7.70;99.90;;;;;;5077298;28;20464;-84
2022/11/22 03:31:23;;;;;;;5.87;1.70;;;7.70;99.90;;;;;;5071967;28;20482;-84
2022/11/22 03:33:50;;;;;;;8.43;2.00;;;7.70;99.90;;;;;;5080356;28;20444;-84
2022/11/22 03:36:19;;;;;;;3.93;2.13;;;7.60;99.90;;;;;;5083825;28;20486;-84
2022/11/22 03:38:46;;;;;;;5.90;1.90;;;7.60;99.90;;;;;;5077552;28;20462;-83
2022/11/22 03:41:12;;;;;;;4.87;1.60;;;7.50;99.90;;;;;;5073181;28;20558;-84
2022/11/22 03:43:39;;;;;;;6.40;2.40;;;7.40;99.90;;;;;;5078801;28;20537;-83
2022/11/22 03:46:06;;;;;;;4.13;1.50;;;7.30;99.90;;;;;;5094697;28;20451;-84
2022/11/22 03:48:33;;;;;;;5.40;1.97;;;7.30;99.90;;;;;;5090453;28;20450;-83
2022/11/22 03:51:04;;;;;;;4.00;1.87;;;7.20;99.90;;;;;;5092830;28;20466;-85
2022/11/22 03:53:33;;;;;;;9.47;1.80;;;7.20;99.90;;;;;;5076554;28;20462;-84
2022/11/22 03:56:00;;;;;;;2.83;1.30;;;7.20;99.90;;;;;;5072601;28;20453;-84
2022/11/22 03:58:27;;;;;;;11.00;2.10;;;7.10;99.90;;;;;;5088415;28;20453;-84
2022/11/22 04:00:54;;;;;;;8.40;2.10;;;7.00;99.90;;;;;;5074863;28;20478;-84
2022/11/22 04:03:20;;;;;;;3.50;2.03;;;7.00;99.90;;;;;;5087088;28;20460;-84
2022/11/22 04:05:47;;;;;;;7.90;1.77;;;7.00;99.90;;;;;;5093553;28;20489;-84
2022/11/22 04:08:14;;;;;;;7.97;2.23;;;7.00;99.90;;;;;;5081091;28;20458;-84
2022/11/22 04:10:43;;;;;;;5.03;2.40;;;7.00;99.90;;;;;;5074767;28;20479;-83
2022/11/22 04:13:09;;;;;;;13.73;3.50;;;6.90;99.90;;;;;;5101529;28;20452;-84
2022/11/22 04:15:36;;;;;;;11.70;2.90;;;6.90;99.90;;;;;;5111391;28;20517;-85
2022/11/22 04:18:03;;;;;;;3.03;1.77;;;6.90;99.90;;;;;;5114312;28;20525;-84
2022/11/22 04:23:17;;;;;;;7.70;2.23;;;6.80;99.90;;;;;;5088917;28;20449;-84
2022/11/22 04:25:46;;;;;;;9.20;2.30;;;6.80;99.90;;;;;;5094939;28;20509;-84
2022/11/22 04:28:14;;;;;;;6.30;2.30;;;6.80;99.90;;;;;;5112115;28;20441;-84
2022/11/22 04:33:26;;;;;;;4.70;2.00;;;6.80;99.90;;;;;;5086227;28;20581;-84
2022/11/22 04:35:53;;;;;;;7.87;1.80;;;6.70;99.90;;;;;;5089245;28;20517;-85
2022/11/22 04:38:20;;;;;;;7.40;1.87;;;6.70;99.90;;;;;;5093609;28;20496;-85
2022/11/22 04:40:49;;;;;;;6.73;2.77;;;6.70;99.90;;;;;;5087271;28;20472;-84
2022/11/22 04:46:04;;;;;;;7.73;1.90;;;6.60;99.90;;;;;;5088856;28;20473;-84
2022/11/22 04:48:31;;;;;;;10.80;2.50;;;6.50;99.90;;;;;;5088047;28;20441;-83
2022/11/22 04:53:43;;;;;;;11.83;2.67;;;6.50;99.90;;;;;;5075718;28;20453;-83
2022/11/22 04:56:12;;;;;;;5.53;1.63;;;6.40;99.90;;;;;;5069718;28;20454;-84
2022/11/22 04:58:39;;;;;;;4.90;1.60;;;6.40;99.90;;;;;;5074861;28;20456;-84
2022/11/22 05:01:06;;;;;;;5.00;1.67;;;6.40;99.90;;;;;;5076301;28;20474;-84
2022/11/22 05:03:33;;;;;;;7.10;2.30;;;6.40;99.90;;;;;;5076567;28;20533;-84
2022/11/22 05:06:01;;;;;;;4.63;2.10;;;6.40;99.90;;;;;;5082859;28;20446;-83
2022/11/22 05:08:28;;;;;;;9.60;2.53;;;6.40;99.90;;;;;;5082374;28;20440;-84
2022/11/22 05:10:58;;;;;;;9.70;2.63;;;6.40;99.90;;;;;;5074699;28;20544;-84
2022/11/22 05:13:29;;;;;;;3.90;1.40;;;6.30;99.90;;;;;;5074121;28;20848;-84
2022/11/22 05:15:57;;;;;;;7.87;2.07;;;6.40;99.90;;;;;;5079293;28;20541;-83
2022/11/22 05:18:24;;;;;;;11.70;2.57;;;6.30;99.90;;;;;;5076676;28;20494;-82
2022/11/22 05:20:51;;;;;;;13.33;2.83;;;6.20;99.90;;;;;;5069309;28;21038;-82
2022/11/22 05:26:04;;;;;;;4.77;1.43;;;6.30;99.90;;;;;;5068573;28;20437;-82
2022/11/22 05:28:34;;;;;;;7.30;2.47;;;6.30;99.90;;;;;;5090342;28;20455;-82
2022/11/22 05:31:07;;;;;;;6.80;1.97;;;6.20;99.90;;;;;;5100482;28;20548;-81
2022/11/22 05:33:35;;;;;;;12.63;2.70;;;6.20;99.90;;;;;;5093833;28;20471;-81
2022/11/22 05:36:02;;;;;;;10.80;2.73;;;6.10;99.90;;;;;;5078416;28;20540;-82
2022/11/22 05:38:29;;;;;;;15.00;2.70;;;6.10;99.90;;;;;;5084186;28;20580;-82
2022/11/22 05:40:56;;;;;;;14.37;2.20;;;6.10;99.90;;;;;;5065167;28;21115;-82
2022/11/22 05:43:22;;;;;;;7.20;2.00;;;6.10;99.90;;;;;;5062343;28;20531;-81
2022/11/22 05:45:51;;;;;;;9.03;2.20;;;6.10;99.90;;;;;;5093013;28;20456;-81
2022/11/22 05:48:17;;;;;;;10.30;1.80;;;6.10;99.90;;;;;;5085906;28;20440;-82
2022/11/22 05:50:44;;;;;;;6.53;2.20;;;6.10;99.90;;;;;;5099368;28;20462;-82
2022/11/22 05:53:11;;;;;;;7.23;1.80;;;6.00;99.90;;;;;;5095543;28;20467;-82
2022/11/22 05:55:38;;;;;;;12.33;1.90;;;5.90;99.90;;;;;;5078542;28;20465;-82
2022/11/22 05:58:05;;;;;;;7.13;2.23;;;6.00;99.90;;;;;;5079958;28;20491;-82
2022/11/22 06:00:31;;;;;;;5.97;1.90;;;6.00;99.90;;;;;;5095893;28;20479;-82
2022/11/22 06:03:04;;;;;;;6.47;1.93;;;6.00;99.90;;;;;;5094511;28;20456;-80
2022/11/22 06:05:31;;;;;;;3.77;1.70;;;5.90;99.90;;;;;;5077200;28;20457;-82
2022/11/22 06:08:00;;;;;;;10.10;1.80;;;5.90;99.90;;;;;;5075564;28;20896;-82
2022/11/22 06:10:27;;;;;;;9.00;2.00;;;5.90;99.90;;;;;;5075841;28;20472;-80
2022/11/22 06:12:55;;;;;;;9.10;2.57;;;5.80;99.90;;;;;;5095330;28;20447;-82
2022/11/22 06:15:21;;;;;;;4.63;2.10;;;5.80;99.90;;;;;;5094569;28;20458;-80
2022/11/22 06:17:48;;;;;;;5.37;1.43;;;5.80;99.90;;;;;;5080007;28;20853;-80
2022/11/22 06:20:17;;;;;;;5.73;1.90;;;5.80;99.90;;;;;;5110968;22;20527;-79
2022/11/22 06:22:44;;;;;;;5.07;1.53;;;5.90;99.90;;;;;;5054799;28;20546;-79
2022/11/22 06:25:11;;;;;;;9.17;1.60;;;5.90;99.90;;;;;;5050523;28;20462;-79
2022/11/22 06:27:38;;;;;;;7.40;2.33;;;5.80;99.90;;;;;;5054737;28;20546;-79
2022/11/22 06:30:05;;;;;;;5.37;1.50;;;5.80;99.90;;;;;;5055077;28;20481;-79
2022/11/22 06:32:33;;;;;;;9.13;1.70;;;5.80;99.90;;;;;;5054686;28;20613;-79
2022/11/22 06:35:01;;;;;;;21.53;12.50;;;5.80;99.90;;;;;;5042902;28;20456;-79
2022/11/22 06:37:29;;;;;;;6.30;3.70;;;5.70;99.90;;;;;;5052120;28;20482;-79
2022/11/22 06:39:56;;;;;;;10.20;2.60;;;5.70;99.90;;;;;;5055183;28;20538;-80
2022/11/22 06:42:23;;;;;;;10.00;2.87;;;5.70;99.90;;;;;;5055038;28;20816;-79
2022/11/22 06:44:50;;;;;;;9.10;3.40;;;5.70;99.90;;;;;;5054937;28;20549;-80
2022/11/22 06:47:17;;;;;;;5.77;1.87;;;5.60;99.90;;;;;;5055330;28;20482;-79
2022/11/22 06:49:44;;;;;;;7.83;2.07;;;5.70;99.90;;;;;;5056268;28;20452;-78
2022/11/22 06:52:11;;;;;;;9.23;2.13;;;5.70;99.90;;;;;;5053605;28;21133;-78
2022/11/22 06:54:39;;;;;;;10.13;1.80;;;5.70;99.90;;;;;;5053117;28;20973;-78
2022/11/22 06:57:05;;;;;;;4.90;2.10;;;5.70;99.90;;;;;;5052149;28;20482;-78
2022/11/22 06:59:32;;;;;;;6.90;2.23;;;5.60;99.90;;;;;;5053238;28;20461;-78
2022/11/22 07:01:59;;;;;;;7.13;1.80;;;5.60;99.90;;;;;;5045679;28;21032;-78
2022/11/22 07:04:26;;;;;;;10.90;2.07;;;5.50;99.90;;;;;;5049644;28;20465;-78
2022/11/22 07:06:53;;;;;;;4.70;1.47;;;5.50;99.90;;;;;;5050418;28;20909;-78
2022/11/22 07:09:20;;;;;;;5.53;1.73;;;5.50;99.90;;;;;;5049652;28;20486;-77
2022/11/22 07:11:48;;;;;;;10.40;2.33;;;5.50;99.90;;;;;;5048675;28;20538;-77
2022/11/22 07:14:14;;;;;;;10.63;1.87;;;5.40;99.90;;;;;;5051808;28;20457;-77
2022/11/22 07:16:41;;;;;;;11.90;3.10;;;5.40;99.90;;;;;;5050921;28;20963;-77
2022/11/22 07:19:08;;;;;;;7.27;2.80;;;5.40;99.90;;;;;;5052584;28;20486;-79
2022/11/22 07:21:36;;;;;;;8.83;2.57;;;5.40;99.90;;;;;;5052813;28;21032;-79
2022/11/22 07:24:05;;;;;;;9.40;2.10;;;5.50;99.90;;;;;;5047113;28;20478;-77
2022/11/22 07:26:31;;;;;;;14.13;2.87;;;5.50;99.90;;;;;;5064659;28;20478;-78
2022/11/22 07:29:00;;;;;;;6.50;1.63;;;5.50;99.90;;;;;;5055200;28;20470;-79
2022/11/22 07:31:27;;;;;;;6.57;1.77;;;5.50;99.90;;;;;;5048632;28;21070;-78
2022/11/22 07:33:55;;;;;;;7.20;2.20;;;5.50;99.90;;;;;;5049687;28;20524;-78
2022/11/22 07:36:23;;;;;;;7.97;1.87;;;5.60;99.90;;;;;;5046188;28;20534;-79
2022/11/22 07:38:50;;;;;;;5.60;2.27;;;5.50;99.90;;;;;;5049009;28;20486;-78
2022/11/22 07:41:18;;;;;;;11.10;1.93;;;5.50;99.90;;;;;;5043948;28;20855;-78
2022/11/22 07:43:45;;;;;;;5.60;1.80;;;5.60;99.90;;;;;;5048346;28;20875;-81
2022/11/22 07:46:21;;;;;;;5.83;2.03;;;5.60;99.90;;;;;;5047246;28;20451;-78
2022/11/22 07:48:48;;;;;;;4.43;1.87;;;5.60;99.90;;;;;;5044502;28;20529;-78
2022/11/22 07:51:15;;;;;;;4.10;2.17;;;5.60;99.90;;;;;;5050688;28;20537;-77
2022/11/22 07:53:41;;;;;;;6.47;2.10;;;5.60;99.90;;;;;;5052588;28;20981;-77
2022/11/22 07:56:08;;;;;;;5.53;1.97;;;5.60;99.90;;;;;;5053410;28;20545;-78
2022/11/22 07:58:36;;;;;;;13.47;2.53;;;5.70;99.90;;;;;;5052543;28;20488;-78
2022/11/22 08:01:07;;;;;;;5.63;2.07;;;5.70;99.90;;;;;;5049971;28;20479;-78
2022/11/22 08:03:35;;;;;;;6.23;2.20;;;5.70;99.90;;;;;;5048483;28;20455;-77
2022/11/22 08:06:04;;;;;;;5.13;1.90;;;5.80;99.90;;;;;;5049467;28;20453;-78
2022/11/22 08:08:30;;;;;;;14.43;1.90;;;5.80;99.90;;;;;;5044414;28;20955;-79
2022/11/22 08:10:57;;;;;;;8.57;2.40;;;5.80;99.90;;;;;;5052476;28;21047;-78
2022/11/22 08:13:24;;;;;;;4.83;1.40;;;6.00;99.90;;;;;;5054056;28;20454;-78
2022/11/22 08:15:52;;;;;;;5.20;1.70;;;6.00;99.90;;;;;;5049406;28;20913;-79
2022/11/22 08:18:18;;;;;;;8.00;1.80;;;6.10;99.90;;;;;;5049035;28;20991;-78
2022/11/22 08:20:47;;;;;;;5.53;2.20;;;6.10;99.90;;;;;;5045984;28;20483;-80
2022/11/22 08:23:13;;;;;;;6.33;2.30;;;6.20;99.90;;;;;;5052732;28;20452;-78
2022/11/22 08:25:40;;;;;;;9.50;1.80;;;6.30;99.90;;;;;;5048734;28;20516;-79
2022/11/22 08:28:07;;;;;;;4.70;1.73;;;6.30;99.90;;;;;;5052662;28;20497;-79
2022/11/22 08:30:34;;;;;;;8.60;1.70;;;6.40;99.90;;;;;;5059700;28;20478;-78
2022/11/22 08:33:01;;;;;;;5.10;1.67;;;6.50;99.90;;;;;;5059517;28;20457;-80
2022/11/22 08:35:27;;;;;;;7.43;2.17;;;6.50;99.90;;;;;;5059237;28;20515;-79
2022/11/22 08:37:59;;;;;;;6.90;2.17;;;6.50;99.90;;;;;;5058633;28;20491;-80
2022/11/22 08:40:26;;;;;;;6.13;1.97;;;6.60;99.90;;;;;;5043359;28;20476;-79
2022/11/22 08:42:55;;;;;;;5.77;1.83;;;6.60;99.90;;;;;;5042250;28;20454;-79
2022/11/22 08:45:21;;;;;;;7.37;2.17;;;6.60;99.90;;;;;;5059293;28;20455;-79
2022/11/22 08:47:48;;;;;;;10.20;2.23;;;6.60;99.90;;;;;;5059335;28;20468;-80
2022/11/22 08:50:17;;;;;;;9.33;2.17;;;6.60;99.90;;;;;;5059635;28;20565;-77
2022/11/22 08:52:43;;;;;;;12.37;2.33;;;6.60;99.90;;;;;;5071808;28;20500;-78
2022/11/22 08:55:11;;;;;;;8.50;1.60;;;6.70;99.90;;;;;;5079651;28;20467;-79
2022/11/22 08:57:38;;;;;;;6.00;2.23;;;6.80;99.90;;;;;;5077540;28;20509;-78
2022/11/22 09:00:06;;;;;;;4.80;1.67;;;6.90;99.90;;;;;;5059577;28;20491;-79
2022/11/22 09:02:33;;;;;;;7.40;1.43;;;7.10;99.90;;;;;;5059255;28;20847;-79
2022/11/22 09:05:00;;;;;;;4.60;1.67;;;7.10;99.90;;;;;;5059203;28;20452;-78
2022/11/22 09:07:28;;;;;;;7.03;1.63;;;7.20;99.90;;;;;;5058901;28;20514;-80
2022/11/22 09:09:54;;;;;;;5.63;2.23;;;7.30;99.90;;;;;;5058532;28;20822;-79
2022/11/22 09:12:23;;;;;;;6.03;1.67;;;7.30;99.90;;;;;;5058661;28;20462;-79
2022/11/22 09:14:49;;;;;;;8.13;1.77;;;7.30;99.90;;;;;;5057990;28;20448;-79
2022/11/22 09:17:16;;;;;;;6.40;1.73;;;7.30;99.90;;;;;;5058686;28;20465;-79
2022/11/22 09:19:43;;;;;;;5.53;1.70;;;7.40;99.90;;;;;;5057732;28;20487;-78
2022/11/22 09:22:10;;;;;;;8.70;1.97;;;7.40;99.90;;;;;;5060203;28;20864;-78
2022/11/22 09:24:37;;;;;;;8.13;2.03;;;7.40;99.90;;;;;;5060136;28;20458;-78
2022/11/22 09:27:04;;;;;;;7.53;1.70;;;7.40;99.90;;;;;;5060753;28;20522;-79
2022/11/22 09:29:32;;;;;;;4.83;1.20;;;7.50;99.90;;;;;;5060002;28;20444;-79
2022/11/22 09:31:59;;;;;;;7.63;2.17;;;7.50;99.90;;;;;;5059320;28;20497;-79
2022/11/22 09:34:26;;;;;;;8.03;2.10;;;7.60;99.90;;;;;;5073913;28;20520;-79
2022/11/22 09:36:53;;;;;;;3.50;1.37;;;7.60;99.90;;;;;;5063188;28;20834;-78
2022/11/22 09:39:19;;;;;;;8.63;1.87;;;7.70;99.90;;;;;;5058844;28;20558;-79
2022/11/22 09:42:22;;;;;;;10.53;1.53;;;7.70;99.90;;;;;;5058575;28;20483;-79
2022/11/22 09:45:16;;;;;;;6.07;1.40;;;7.90;99.90;;;;;;5068207;28;20458;-78
2022/11/22 09:47:52;;;;;;;3.13;1.07;;;8.10;99.90;;;;;;5069145;28;20468;-79
2022/11/22 09:50:29;;;;;;;5.63;1.60;;;8.10;99.90;;;;;;5068875;28;20528;-79
2022/11/22 09:53:01;;;;;;;4.67;1.23;;;8.00;99.90;;;;;;5067768;28;20476;-79
2022/11/22 09:55:33;;;;;;;4.80;1.87;;;8.00;99.90;;;;;;5069146;28;20471;-79
2022/11/22 09:58:08;;;;;;;4.90;1.33;;;8.00;99.90;;;;;;5069838;28;20503;-78
2022/11/22 10:00:36;;;;;;;3.20;1.37;;;8.30;99.90;;;;;;5070832;28;20532;-77
2022/11/22 10:03:16;;;;;;;2.80;1.20;;;8.40;99.90;;;;;;5073758;28;20513;-79
2022/11/22 10:05:49;;;;;;;4.23;1.10;;;8.50;99.90;;;;;;5073216;28;20527;-79
2022/11/22 10:08:26;;;;;;;3.20;1.27;;;8.40;99.90;;;;;;5063883;28;20448;-78
2022/11/22 10:10:55;;;;;;;5.57;1.37;;;8.40;99.90;;;;;;5056791;28;20476;-78
2022/11/22 10:13:29;;;;;;;9.13;1.50;;;8.40;99.90;;;;;;5056438;28;20454;-78
2022/11/22 10:16:07;;;;;;;3.40;1.20;;;8.40;99.90;;;;;;5057107;28;20482;-77
2022/11/22 10:18:39;;;;;;;3.63;1.13;;;8.50;99.90;;;;;;5057368;28;20505;-77
2022/11/22 10:21:11;;;;;;;2.63;1.10;;;8.60;99.90;;;;;;5057328;28;20488;-77
2022/11/22 10:23:39;;;;;;;10.70;1.80;;;8.80;99.90;;;;;;5056185;28;20838;-79
2022/11/22 10:26:16;;;;;;;4.90;1.50;;;8.90;99.90;;;;;;5057335;28;20456;-78
2022/11/22 10:28:53;;;;;;;6.17;1.33;;;9.30;99.90;;;;;;5056100;28;20985;-78
2022/11/22 10:31:26;;;;;;;5.80;1.60;;;9.50;99.90;;;;;;5056777;28;20547;-78
2022/11/22 10:34:02;;;;;;;5.93;1.93;;;9.50;99.90;;;;;;5056332;28;20568;-78
2022/11/22 10:36:38;;;;;;;6.20;1.47;;;9.50;99.90;;;;;;5056380;28;20456;-78
2022/11/22 10:39:29;;;;;;;4.77;1.10;;;9.60;99.90;;;;;;5056806;28;20481;-79
2022/11/22 10:42:17;;;;;;;10.00;1.70;;;9.50;99.90;;;;;;5057916;28;20468;-78
2022/11/22 10:44:51;;;;;;;9.10;1.83;;;9.40;99.90;;;;;;5056151;28;20982;-78
2022/11/22 10:47:42;;;;;;;3.80;1.40;;;9.20;99.90;;;;;;5056646;28;20457;-78
2022/11/22 10:50:16;;;;;;;7.37;1.30;;;9.10;99.90;;;;;;5054106;28;20569;-78
2022/11/22 10:52:53;;;;;;;4.60;1.20;;;9.10;99.90;;;;;;5056289;28;20825;-79
2022/11/22 10:55:32;;;;;;;4.40;1.23;;;9.30;99.90;;;;;;5054717;28;20456;-80
2022/11/22 10:58:08;;;;;;;2.97;1.30;;;9.40;99.90;;;;;;5054575;28;20540;-78
2022/11/22 11:00:39;;;;;;;3.90;1.30;;;9.50;99.90;;;;;;5039465;28;20468;-79
2022/11/22 11:03:12;;;;;;;6.60;1.77;;;9.70;99.90;;;;;;5054368;28;20536;-78
2022/11/22 11:05:46;;;;;;;7.87;1.47;;;9.80;99.90;;;;;;5034626;28;20457;-79
2022/11/22 11:08:16;;;;;;;6.10;1.63;;;9.80;99.90;;;;;;5050440;28;20450;-79
2022/11/22 11:10:46;;;;;;;3.70;1.40;;;9.90;99.90;;;;;;5054125;28;20474;-78
2022/11/22 11:13:21;;;;;;;8.00;1.50;;;10.30;99.90;;;;;;5053601;28;20458;-79
2022/11/22 11:15:50;;;;;;;6.70;1.83;;;11.10;99.90;;;;;;5054813;28;20457;-80
2022/11/22 11:18:25;;;;;;;3.50;1.93;;;11.90;99.90;;;;;;5054430;28;20451;-79
2022/11/22 11:20:52;;;;;;;5.73;1.40;;;11.80;99.90;;;;;;5054333;28;20486;-80
2022/11/22 11:23:19;;;;;;;5.07;1.23;;;11.70;99.90;;;;;;5054005;28;20459;-80
2022/11/22 11:25:48;;;;;;;5.90;1.80;;;11.80;99.90;;;;;;5053501;28;20890;-79
2022/11/22 11:28:19;;;;;;;6.10;1.70;;;12.70;99.90;;;;;;5042947;28;20517;-79
2022/11/22 11:30:49;;;;;;;11.00;1.77;;;14.00;99.90;;;;;;5053847;28;20472;-80
2022/11/22 11:33:27;;;;;;;7.03;1.77;;;14.30;99.90;;;;;;5055384;28;20448;-81
2022/11/22 11:35:57;;;;;;;7.67;2.50;;;14.30;99.90;;;;;;5058431;28;20451;-79
2022/11/22 11:38:29;;;;;;;9.80;2.40;;;14.00;99.90;;;;;;5055135;28;20448;-79
2022/11/22 11:40:55;;;;;;;5.57;1.77;;;13.60;99.90;;;;;;5059122;28;20953;-77
2022/11/22 11:43:24;;;;;;;5.70;1.27;;;13.40;99.90;;;;;;5076239;28;20546;-79
2022/11/22 11:45:51;;;;;;;4.47;1.30;;;13.70;99.90;;;;;;5054860;28;20535;-79
2022/11/22 11:48:36;;;;;;;5.57;1.17;;;14.90;99.90;;;;;;5055086;28;20530;-78
2022/11/22 11:51:08;;;;;;;5.03;1.80;;;15.20;99.90;;;;;;5053164;28;20846;-79
2022/11/22 11:53:35;;;;;;;6.03;1.60;;;14.70;99.90;;;;;;5052580;28;20458;-79
2022/11/22 11:56:50;;;;;;;4.67;1.10;;;14.90;99.90;;;;;;5053257;28;20457;-78
2022/11/22 11:59:19;;;;;;;4.93;3.57;;;14.20;99.90;;;;;;4951229;28;20481;-80
2022/11/22 12:02:06;;;;;;;3.50;1.10;;;14.10;99.90;;;;;;4952323;29;20486;-80
2022/11/22 12:04:37;;;;;;;4.17;1.93;;;13.70;99.90;;;;;;5023729;28;20447;-79
2022/11/22 12:07:15;;;;;;;5.60;1.50;;;13.00;99.90;;;;;;5053298;28;20831;-79
2022/11/22 12:09:44;;;;;;;3.07;1.20;;;12.50;99.90;;;;;;5053084;28;20446;-79
2022/11/22 12:12:19;;;;;;;3.60;1.30;;;12.10;99.90;;;;;;5053297;28;20450;-80
2022/11/22 12:14:53;;;;;;;7.43;2.50;;;11.70;99.90;;;;;;5053542;28;20519;-79
2022/11/22 12:17:26;;;;;;;3.07;1.20;;;11.40;99.90;;;;;;5053670;28;20451;-79
2022/11/22 12:20:02;;;;;;;4.93;1.30;;;11.40;99.90;;;;;;5053222;28;20574;-79
2022/11/22 12:26:00;;;;;;;4.73;1.07;;;11.20;99.90;;;;;;5076046;28;20448;-84
2022/11/22 12:31:34;;;;;;;3.80;1.20;;;11.20;99.90;;;;;;5066972;28;20522;-85
2022/11/22 12:34:14;;;;;;;6.93;1.70;;;11.40;99.90;;;;;;5083549;28;20591;-86
2022/11/22 12:36:50;;;;;;;6.57;1.40;;;11.50;99.90;;;;;;5067155;28;20452;-87
2022/11/22 12:39:20;;;;;;;5.27;1.30;;;11.30;99.90;;;;;;5061989;28;20897;-86
2022/11/22 12:41:52;;;;;;;5.27;0.97;;;11.10;99.90;;;;;;5061625;28;20907;-85
2022/11/22 12:44:20;;;;;;;4.37;1.10;;;11.00;99.90;;;;;;5062807;28;21144;-86
2022/11/22 12:46:52;;;;;;;3.23;0.93;;;11.00;99.90;;;;;;5072727;28;20850;-85
2022/11/22 12:49:29;;;;;;;4.30;1.10;;;11.00;99.90;;;;;;5068786;28;20536;-84
2022/11/22 12:52:06;;;;;;;6.33;1.07;;;10.90;99.90;;;;;;5057929;28;20553;-85
2022/11/22 12:54:38;;;;;;;1.90;0.70;;;11.00;99.90;;;;;;5058675;28;20523;-82
2022/11/22 12:57:13;;;;;;;3.20;1.00;;;11.10;99.90;;;;;;5057933;28;20521;-84
2022/11/22 12:59:47;;;;;;;3.20;1.00;;;11.10;99.90;;;;;;5061580;28;20502;-85
2022/11/22 13:02:27;;;;;;;2.87;0.80;;;11.30;99.90;;;;;;5060281;28;20473;-86
2022/11/22 13:05:00;;;;;;;3.93;0.87;;;11.40;99.90;;;;;;5064289;28;20452;-85
2022/11/22 13:07:44;;;;;;;2.60;0.73;;;11.40;99.90;;;;;;5058843;28;20459;-85
2022/11/22 13:10:20;;;;;;;1.90;0.90;;;11.30;99.90;;;;;;5072766;28;20930;-84
2022/11/22 13:12:48;;;;;;;1.93;0.87;;;11.20;99.90;;;;;;5077892;28;20475;-84
2022/11/22 13:15:20;;;;;;;2.20;0.90;;;11.10;99.90;;;;;;5064103;28;21027;-85
2022/11/22 13:17:50;;;;;;;2.63;1.00;;;11.10;99.90;;;;;;5059655;28;20541;-87
2022/11/22 13:20:20;;;;;;;4.67;0.80;;;10.90;99.90;;;;;;5073613;28;20482;-85
2022/11/22 13:22:59;;;;;;;2.20;1.00;;;10.80;99.90;;;;;;5079376;28;20595;-84
2022/11/22 13:25:48;;;;;;;4.47;1.00;;;10.60;99.90;;;;;;5078468;28;20515;-85
2022/11/22 13:28:19;;;;;;;4.47;1.00;;;10.60;99.90;;;;;;5052262;28;20449;-85